sensor_id;sensor_type;location;lat;lon;timestamp;temperature;humidity
12841;DHT22;6487;48.626;12.486;2023-05-10T00:01:52;14.80;94.60
12841;DHT22;6487;48.626;12.486;2023-05-10T00:04:21;14.80;94.10
12841;DHT22;6487;48.626;12.486;2023-05-10T00:06:50;14.70;94.20
12841;DHT22;6487;48.626;12.486;2023-05-10T00:09:19;14.70;94.20
12841;DHT22;6487;48.626;12.486;2023-05-10T00:11:47;14.70;94.40
12841;DHT22;6487;48.626;12.486;2023-05-10T00:14:15;14.70;94.50
12841;DHT22;6487;48.626;12.486;2023-05-10T00:16:44;14.70;94.90
12841;DHT22;6487;48.626;12.486;2023-05-10T00:19:13;14.70;94.60
12841;DHT22;6487;48.626;12.486;2023-05-10T00:21:41;14.50;94.60
12841;DHT22;6487;48.626;12.486;2023-05-10T00:24:11;14.50;94.80
12841;DHT22;6487;48.626;12.486;2023-05-10T00:26:39;14.50;94.40
12841;DHT22;6487;48.626;12.486;2023-05-10T00:29:10;14.60;94.90
12841;DHT22;6487;48.626;12.486;2023-05-10T00:31:38;14.50;94.70
12841;DHT22;6487;48.626;12.486;2023-05-10T00:34:07;14.50;94.90
12841;DHT22;6487;48.626;12.486;2023-05-10T00:36:35;14.50;95.10
12841;DHT22;6487;48.626;12.486;2023-05-10T00:39:03;14.50;95.60
12841;DHT22;6487;48.626;12.486;2023-05-10T00:41:34;14.40;95.40
12841;DHT22;6487;48.626;12.486;2023-05-10T00:44:02;14.20;95.50
12841;DHT22;6487;48.626;12.486;2023-05-10T00:46:31;14.20;95.90
12841;DHT22;6487;48.626;12.486;2023-05-10T00:48:59;14.10;95.90
12841;DHT22;6487;48.626;12.486;2023-05-10T00:51:28;14.20;96.50
12841;DHT22;6487;48.626;12.486;2023-05-10T00:53:58;14.20;96.00
12841;DHT22;6487;48.626;12.486;2023-05-10T00:56:27;14.20;96.20
12841;DHT22;6487;48.626;12.486;2023-05-10T00:58:57;14.20;96.30
12841;DHT22;6487;48.626;12.486;2023-05-10T01:01:26;14.20;96.50
12841;DHT22;6487;48.626;12.486;2023-05-10T01:03:55;14.10;96.70
12841;DHT22;6487;48.626;12.486;2023-05-10T01:06:23;14.10;96.90
12841;DHT22;6487;48.626;12.486;2023-05-10T01:08:52;14.00;97.20
12841;DHT22;6487;48.626;12.486;2023-05-10T01:11:20;14.00;97.00
12841;DHT22;6487;48.626;12.486;2023-05-10T01:13:59;14.10;97.30
12841;DHT22;6487;48.626;12.486;2023-05-10T01:16:31;14.20;98.00
12841;DHT22;6487;48.626;12.486;2023-05-10T01:19:00;14.30;97.30
12841;DHT22;6487;48.626;12.486;2023-05-10T01:21:36;14.20;97.30
12841;DHT22;6487;48.626;12.486;2023-05-10T01:31:13;14.10;97.50
12841;DHT22;6487;48.626;12.486;2023-05-10T01:33:52;14.10;97.80
12841;DHT22;6487;48.626;12.486;2023-05-10T01:36:31;14.10;97.80
12841;DHT22;6487;48.626;12.486;2023-05-10T01:39:08;14.00;97.80
12841;DHT22;6487;48.626;12.486;2023-05-10T01:41:45;14.10;98.00
12841;DHT22;6487;48.626;12.486;2023-05-10T01:44:38;14.20;98.10
12841;DHT22;6487;48.626;12.486;2023-05-10T01:47:12;14.20;98.10
12841;DHT22;6487;48.626;12.486;2023-05-10T01:49:47;14.20;97.90
12841;DHT22;6487;48.626;12.486;2023-05-10T01:52:18;14.10;98.70
12841;DHT22;6487;48.626;12.486;2023-05-10T01:54:55;14.10;98.00
12841;DHT22;6487;48.626;12.486;2023-05-10T01:57:30;14.20;98.50
12841;DHT22;6487;48.626;12.486;2023-05-10T02:00:02;14.10;98.40
12841;DHT22;6487;48.626;12.486;2023-05-10T02:02:34;14.10;98.20
12841;DHT22;6487;48.626;12.486;2023-05-10T02:05:07;14.10;98.30
12841;DHT22;6487;48.626;12.486;2023-05-10T02:07:39;14.00;98.80
12841;DHT22;6487;48.626;12.486;2023-05-10T02:10:09;14.00;99.30
12841;DHT22;6487;48.626;12.486;2023-05-10T02:12:41;14.00;99.40
12841;DHT22;6487;48.626;12.486;2023-05-10T02:15:17;14.10;99.70
12841;DHT22;6487;48.626;12.486;2023-05-10T02:17:48;14.00;99.30
12841;DHT22;6487;48.626;12.486;2023-05-10T02:20:19;13.90;99.20
12841;DHT22;6487;48.626;12.486;2023-05-10T02:22:49;13.80;99.40
12841;DHT22;6487;48.626;12.486;2023-05-10T02:25:20;13.80;99.70
12841;DHT22;6487;48.626;12.486;2023-05-10T02:27:54;13.80;99.80
12841;DHT22;6487;48.626;12.486;2023-05-10T02:30:24;13.70;99.90
12841;DHT22;6487;48.626;12.486;2023-05-10T02:32:53;13.70;99.90
12841;DHT22;6487;48.626;12.486;2023-05-10T02:35:23;13.70;99.90
12841;DHT22;6487;48.626;12.486;2023-05-10T02:37:57;13.60;99.90
12841;DHT22;6487;48.626;12.486;2023-05-10T02:40:27;13.60;99.90
12841;DHT22;6487;48.626;12.486;2023-05-10T02:42:56;13.70;99.90
12841;DHT22;6487;48.626;12.486;2023-05-10T02:45:29;13.60;99.90
12841;DHT22;6487;48.626;12.486;2023-05-10T02:47:58;13.60;99.90
12841;DHT22;6487;48.626;12.486;2023-05-10T02:50:30;13.50;99.90
12841;DHT22;6487;48.626;12.486;2023-05-10T02:53:01;13.40;99.90
12841;DHT22;6487;48.626;12.486;2023-05-10T02:55:36;13.30;99.90
12841;DHT22;6487;48.626;12.486;2023-05-10T02:58:08;13.40;99.90
12841;DHT22;6487;48.626;12.486;2023-05-10T03:00:39;13.50;99.90
12841;DHT22;6487;48.626;12.486;2023-05-10T03:03:07;13.50;99.90
12841;DHT22;6487;48.626;12.486;2023-05-10T03:05:37;13.40;99.90
12841;DHT22;6487;48.626;12.486;2023-05-10T03:08:08;13.40;99.90
12841;DHT22;6487;48.626;12.486;2023-05-10T03:10:41;13.30;99.90
12841;DHT22;6487;48.626;12.486;2023-05-10T03:13:24;13.30;99.90
12841;DHT22;6487;48.626;12.486;2023-05-10T03:16:01;13.20;99.90
12841;DHT22;6487;48.626;12.486;2023-05-10T03:18:42;13.30;99.90
12841;DHT22;6487;48.626;12.486;2023-05-10T03:21:13;13.20;99.90
12841;DHT22;6487;48.626;12.486;2023-05-10T03:23:50;13.20;99.90
12841;DHT22;6487;48.626;12.486;2023-05-10T03:26:24;13.20;99.90
12841;DHT22;6487;48.626;12.486;2023-05-10T03:28:55;13.20;99.90
12841;DHT22;6487;48.626;12.486;2023-05-10T03:31:26;13.20;99.90
12841;DHT22;6487;48.626;12.486;2023-05-10T03:33:55;13.20;99.90
12841;DHT22;6487;48.626;12.486;2023-05-10T03:36:28;13.20;99.90
12841;DHT22;6487;48.626;12.486;2023-05-10T03:38:56;13.20;99.90
12841;DHT22;6487;48.626;12.486;2023-05-10T03:41:24;13.20;99.90
12841;DHT22;6487;48.626;12.486;2023-05-10T03:43:53;13.10;99.90
12841;DHT22;6487;48.626;12.486;2023-05-10T03:46:21;13.10;99.90
12841;DHT22;6487;48.626;12.486;2023-05-10T03:48:50;13.10;99.90
12841;DHT22;6487;48.626;12.486;2023-05-10T03:51:18;13.00;99.90
12841;DHT22;6487;48.626;12.486;2023-05-10T03:53:51;13.10;99.90
12841;DHT22;6487;48.626;12.486;2023-05-10T03:56:19;13.00;99.90
12841;DHT22;6487;48.626;12.486;2023-05-10T03:58:48;12.90;99.90
12841;DHT22;6487;48.626;12.486;2023-05-10T04:01:16;12.90;99.90
12841;DHT22;6487;48.626;12.486;2023-05-10T04:03:44;12.90;99.90
12841;DHT22;6487;48.626;12.486;2023-05-10T04:06:13;12.90;99.90
12841;DHT22;6487;48.626;12.486;2023-05-10T04:08:41;12.90;99.90
12841;DHT22;6487;48.626;12.486;2023-05-10T04:11:12;13.00;99.90
12841;DHT22;6487;48.626;12.486;2023-05-10T04:13:43;13.00;99.90
12841;DHT22;6487;48.626;12.486;2023-05-10T04:16:11;13.00;99.90
12841;DHT22;6487;48.626;12.486;2023-05-10T04:18:40;13.00;99.90
12841;DHT22;6487;48.626;12.486;2023-05-10T04:21:11;13.10;99.90
12841;DHT22;6487;48.626;12.486;2023-05-10T04:23:40;13.20;99.90
12841;DHT22;6487;48.626;12.486;2023-05-10T04:26:09;13.20;99.90
12841;DHT22;6487;48.626;12.486;2023-05-10T04:28:38;13.10;99.90
12841;DHT22;6487;48.626;12.486;2023-05-10T04:31:08;13.20;99.90
12841;DHT22;6487;48.626;12.486;2023-05-10T04:33:37;13.20;99.90
12841;DHT22;6487;48.626;12.486;2023-05-10T04:36:06;13.20;99.90
12841;DHT22;6487;48.626;12.486;2023-05-10T04:38:34;13.20;99.90
12841;DHT22;6487;48.626;12.486;2023-05-10T04:41:06;13.20;99.90
12841;DHT22;6487;48.626;12.486;2023-05-10T04:43:37;13.10;99.90
12841;DHT22;6487;48.626;12.486;2023-05-10T04:46:08;13.20;99.90
12841;DHT22;6487;48.626;12.486;2023-05-10T04:48:37;13.20;99.90
12841;DHT22;6487;48.626;12.486;2023-05-10T04:51:08;13.20;99.90
12841;DHT22;6487;48.626;12.486;2023-05-10T04:53:36;13.20;99.90
12841;DHT22;6487;48.626;12.486;2023-05-10T04:56:05;13.20;99.90
12841;DHT22;6487;48.626;12.486;2023-05-10T04:58:34;13.20;99.90
12841;DHT22;6487;48.626;12.486;2023-05-10T05:01:07;13.20;99.90
12841;DHT22;6487;48.626;12.486;2023-05-10T05:03:36;13.30;99.90
12841;DHT22;6487;48.626;12.486;2023-05-10T05:06:05;13.30;99.90
12841;DHT22;6487;48.626;12.486;2023-05-10T05:08:34;13.40;99.90
12841;DHT22;6487;48.626;12.486;2023-05-10T05:11:02;13.50;99.90
12841;DHT22;6487;48.626;12.486;2023-05-10T05:13:31;13.60;99.90
12841;DHT22;6487;48.626;12.486;2023-05-10T05:16:00;13.70;99.90
12841;DHT22;6487;48.626;12.486;2023-05-10T05:18:30;13.70;99.90
12841;DHT22;6487;48.626;12.486;2023-05-10T05:20:59;13.80;99.90
12841;DHT22;6487;48.626;12.486;2023-05-10T05:23:27;13.90;99.90
12841;DHT22;6487;48.626;12.486;2023-05-10T05:25:56;14.00;99.90
12841;DHT22;6487;48.626;12.486;2023-05-10T05:28:27;14.00;99.90
12841;DHT22;6487;48.626;12.486;2023-05-10T05:30:59;14.10;99.90
12841;DHT22;6487;48.626;12.486;2023-05-10T05:33:27;14.10;99.90
12841;DHT22;6487;48.626;12.486;2023-05-10T05:36:00;14.10;99.90
12841;DHT22;6487;48.626;12.486;2023-05-10T05:38:28;14.20;99.90
12841;DHT22;6487;48.626;12.486;2023-05-10T05:40:57;14.20;99.90
12841;DHT22;6487;48.626;12.486;2023-05-10T05:43:25;14.20;99.90
12841;DHT22;6487;48.626;12.486;2023-05-10T05:45:54;14.30;99.90
12841;DHT22;6487;48.626;12.486;2023-05-10T05:48:24;14.40;99.90
12841;DHT22;6487;48.626;12.486;2023-05-10T05:50:57;14.40;99.90
12841;DHT22;6487;48.626;12.486;2023-05-10T05:53:26;14.40;99.90
12841;DHT22;6487;48.626;12.486;2023-05-10T05:55:55;14.50;99.90
12841;DHT22;6487;48.626;12.486;2023-05-10T05:58:25;14.60;99.90
12841;DHT22;6487;48.626;12.486;2023-05-10T06:00:54;14.60;99.90
12841;DHT22;6487;48.626;12.486;2023-05-10T06:03:23;14.60;99.90
12841;DHT22;6487;48.626;12.486;2023-05-10T06:05:51;14.60;99.90
12841;DHT22;6487;48.626;12.486;2023-05-10T06:08:21;14.60;99.90
12841;DHT22;6487;48.626;12.486;2023-05-10T06:10:50;14.60;99.90
12841;DHT22;6487;48.626;12.486;2023-05-10T06:13:18;14.70;99.90
12841;DHT22;6487;48.626;12.486;2023-05-10T06:15:46;14.70;99.90
12841;DHT22;6487;48.626;12.486;2023-05-10T06:18:15;14.70;99.90
12841;DHT22;6487;48.626;12.486;2023-05-10T06:20:43;14.70;99.90
12841;DHT22;6487;48.626;12.486;2023-05-10T06:23:12;14.70;99.90
12841;DHT22;6487;48.626;12.486;2023-05-10T06:25:41;14.80;99.90
12841;DHT22;6487;48.626;12.486;2023-05-10T06:28:10;14.80;99.90
12841;DHT22;6487;48.626;12.486;2023-05-10T06:30:38;14.80;99.90
12841;DHT22;6487;48.626;12.486;2023-05-10T06:33:06;14.80;99.90
12841;DHT22;6487;48.626;12.486;2023-05-10T06:35:35;14.90;99.90
12841;DHT22;6487;48.626;12.486;2023-05-10T06:38:03;14.90;99.90
12841;DHT22;6487;48.626;12.486;2023-05-10T06:40:31;14.80;99.90
12841;DHT22;6487;48.626;12.486;2023-05-10T06:43:01;14.60;99.90
12841;DHT22;6487;48.626;12.486;2023-05-10T06:45:30;14.70;99.90
12841;DHT22;6487;48.626;12.486;2023-05-10T06:48:04;14.70;99.90
12841;DHT22;6487;48.626;12.486;2023-05-10T06:50:33;14.80;99.90
12841;DHT22;6487;48.626;12.486;2023-05-10T06:53:01;14.80;99.90
12841;DHT22;6487;48.626;12.486;2023-05-10T06:55:30;14.80;99.90
12841;DHT22;6487;48.626;12.486;2023-05-10T06:57:58;14.80;99.90
12841;DHT22;6487;48.626;12.486;2023-05-10T07:00:28;14.80;99.90
12841;DHT22;6487;48.626;12.486;2023-05-10T07:02:56;14.60;99.90
12841;DHT22;6487;48.626;12.486;2023-05-10T07:05:25;14.70;99.90
12841;DHT22;6487;48.626;12.486;2023-05-10T07:07:54;14.70;99.90
12841;DHT22;6487;48.626;12.486;2023-05-10T07:10:23;14.70;99.90
12841;DHT22;6487;48.626;12.486;2023-05-10T07:12:51;14.80;99.90
12841;DHT22;6487;48.626;12.486;2023-05-10T07:15:20;14.90;99.90
12841;DHT22;6487;48.626;12.486;2023-05-10T07:17:50;14.90;99.90
12841;DHT22;6487;48.626;12.486;2023-05-10T07:20:19;14.90;99.90
12841;DHT22;6487;48.626;12.486;2023-05-10T07:22:47;14.90;99.90
12841;DHT22;6487;48.626;12.486;2023-05-10T07:25:16;14.80;99.90
12841;DHT22;6487;48.626;12.486;2023-05-10T07:27:47;14.60;99.90
12841;DHT22;6487;48.626;12.486;2023-05-10T07:30:16;14.60;99.90
12841;DHT22;6487;48.626;12.486;2023-05-10T07:32:44;14.50;99.90
12841;DHT22;6487;48.626;12.486;2023-05-10T07:35:14;14.30;99.90
12841;DHT22;6487;48.626;12.486;2023-05-10T07:37:43;14.20;99.90
12841;DHT22;6487;48.626;12.486;2023-05-10T07:40:11;14.30;99.90
12841;DHT22;6487;48.626;12.486;2023-05-10T07:42:40;14.30;99.90
12841;DHT22;6487;48.626;12.486;2023-05-10T07:45:09;14.30;99.90
12841;DHT22;6487;48.626;12.486;2023-05-10T07:47:37;14.20;99.90
12841;DHT22;6487;48.626;12.486;2023-05-10T07:50:07;14.10;99.90
12841;DHT22;6487;48.626;12.486;2023-05-10T07:52:37;14.10;99.90
12841;DHT22;6487;48.626;12.486;2023-05-10T07:55:06;14.10;99.90
12841;DHT22;6487;48.626;12.486;2023-05-10T07:57:36;14.20;99.90
12841;DHT22;6487;48.626;12.486;2023-05-10T08:00:05;14.20;99.90
12841;DHT22;6487;48.626;12.486;2023-05-10T08:02:41;14.20;99.90
12841;DHT22;6487;48.626;12.486;2023-05-10T08:05:09;14.20;99.90
12841;DHT22;6487;48.626;12.486;2023-05-10T08:07:39;14.20;99.90
12841;DHT22;6487;48.626;12.486;2023-05-10T08:10:09;14.20;99.90
12841;DHT22;6487;48.626;12.486;2023-05-10T08:12:38;14.30;99.90
12841;DHT22;6487;48.626;12.486;2023-05-10T08:15:08;14.30;99.90
12841;DHT22;6487;48.626;12.486;2023-05-10T08:17:37;14.30;99.90
12841;DHT22;6487;48.626;12.486;2023-05-10T08:20:09;14.40;99.90
12841;DHT22;6487;48.626;12.486;2023-05-10T08:22:40;14.30;99.90
12841;DHT22;6487;48.626;12.486;2023-05-10T08:25:09;14.40;99.90
12841;DHT22;6487;48.626;12.486;2023-05-10T08:27:37;14.40;99.90
12841;DHT22;6487;48.626;12.486;2023-05-10T08:30:07;14.50;99.90
12841;DHT22;6487;48.626;12.486;2023-05-10T08:32:36;14.40;99.90
12841;DHT22;6487;48.626;12.486;2023-05-10T08:35:06;14.50;99.90
12841;DHT22;6487;48.626;12.486;2023-05-10T08:37:34;14.60;99.90
12841;DHT22;6487;48.626;12.486;2023-05-10T08:40:05;14.70;99.90
12841;DHT22;6487;48.626;12.486;2023-05-10T08:42:36;14.70;99.90
12841;DHT22;6487;48.626;12.486;2023-05-10T08:45:09;14.80;99.90
12841;DHT22;6487;48.626;12.486;2023-05-10T08:47:39;14.90;99.90
12841;DHT22;6487;48.626;12.486;2023-05-10T08:50:08;15.00;99.90
12841;DHT22;6487;48.626;12.486;2023-05-10T08:52:38;15.00;99.90
12841;DHT22;6487;48.626;12.486;2023-05-10T08:55:09;15.00;99.90
12841;DHT22;6487;48.626;12.486;2023-05-10T08:57:38;15.00;99.90
12841;DHT22;6487;48.626;12.486;2023-05-10T09:00:08;15.00;99.90
12841;DHT22;6487;48.626;12.486;2023-05-10T09:02:37;15.10;99.90
12841;DHT22;6487;48.626;12.486;2023-05-10T09:05:06;15.20;99.90
12841;DHT22;6487;48.626;12.486;2023-05-10T09:07:38;15.10;99.90
12841;DHT22;6487;48.626;12.486;2023-05-10T09:10:09;15.20;99.90
12841;DHT22;6487;48.626;12.486;2023-05-10T09:12:39;15.30;99.90
12841;DHT22;6487;48.626;12.486;2023-05-10T09:15:15;15.40;99.90
12841;DHT22;6487;48.626;12.486;2023-05-10T09:17:46;15.30;99.90
12841;DHT22;6487;48.626;12.486;2023-05-10T09:20:18;15.30;99.90
12841;DHT22;6487;48.626;12.486;2023-05-10T09:22:47;15.40;99.90
12841;DHT22;6487;48.626;12.486;2023-05-10T09:25:17;15.40;99.90
12841;DHT22;6487;48.626;12.486;2023-05-10T09:27:47;15.40;99.90
12841;DHT22;6487;48.626;12.486;2023-05-10T09:30:16;15.30;99.90
12841;DHT22;6487;48.626;12.486;2023-05-10T09:32:46;15.30;99.90
12841;DHT22;6487;48.626;12.486;2023-05-10T09:35:16;15.40;99.90
12841;DHT22;6487;48.626;12.486;2023-05-10T09:37:47;15.50;99.90
12841;DHT22;6487;48.626;12.486;2023-05-10T09:40:19;15.60;99.90
12841;DHT22;6487;48.626;12.486;2023-05-10T09:42:53;15.80;99.90
12841;DHT22;6487;48.626;12.486;2023-05-10T09:45:25;15.90;99.90
12841;DHT22;6487;48.626;12.486;2023-05-10T09:47:54;16.10;99.90
12841;DHT22;6487;48.626;12.486;2023-05-10T09:50:24;16.20;99.90
12841;DHT22;6487;48.626;12.486;2023-05-10T09:52:53;16.40;99.90
12841;DHT22;6487;48.626;12.486;2023-05-10T09:55:37;16.50;99.90
12841;DHT22;6487;48.626;12.486;2023-05-10T09:58:07;16.70;99.90
12841;DHT22;6487;48.626;12.486;2023-05-10T10:00:38;16.80;99.90
12841;DHT22;6487;48.626;12.486;2023-05-10T10:03:12;17.00;99.90
12841;DHT22;6487;48.626;12.486;2023-05-10T10:05:42;17.00;99.90
12841;DHT22;6487;48.626;12.486;2023-05-10T10:08:12;17.00;99.90
12841;DHT22;6487;48.626;12.486;2023-05-10T10:10:42;17.20;99.90
12841;DHT22;6487;48.626;12.486;2023-05-10T10:13:13;17.00;99.90
12841;DHT22;6487;48.626;12.486;2023-05-10T10:15:42;16.90;99.90
12841;DHT22;6487;48.626;12.486;2023-05-10T10:18:13;16.90;99.90
12841;DHT22;6487;48.626;12.486;2023-05-10T10:20:42;17.00;99.90
12841;DHT22;6487;48.626;12.486;2023-05-10T10:23:11;17.00;99.90
12841;DHT22;6487;48.626;12.486;2023-05-10T10:25:44;17.00;99.90
12841;DHT22;6487;48.626;12.486;2023-05-10T10:28:22;17.00;99.90
12841;DHT22;6487;48.626;12.486;2023-05-10T10:30:55;17.00;99.90
12841;DHT22;6487;48.626;12.486;2023-05-10T10:33:51;17.00;99.90
12841;DHT22;6487;48.626;12.486;2023-05-10T10:36:24;16.80;99.90
12841;DHT22;6487;48.626;12.486;2023-05-10T10:38:58;16.90;99.90
12841;DHT22;6487;48.626;12.486;2023-05-10T10:41:30;16.90;99.90
12841;DHT22;6487;48.626;12.486;2023-05-10T10:44:25;16.90;99.90
12841;DHT22;6487;48.626;12.486;2023-05-10T10:47:07;17.00;99.90
12841;DHT22;6487;48.626;12.486;2023-05-10T10:49:48;17.00;99.90
12841;DHT22;6487;48.626;12.486;2023-05-10T10:52:25;17.00;99.90
12841;DHT22;6487;48.626;12.486;2023-05-10T10:55:01;17.00;99.90
12841;DHT22;6487;48.626;12.486;2023-05-10T10:57:45;16.90;99.90
12841;DHT22;6487;48.626;12.486;2023-05-10T11:00:23;16.90;99.90
12841;DHT22;6487;48.626;12.486;2023-05-10T11:02:55;16.80;99.90
12841;DHT22;6487;48.626;12.486;2023-05-10T11:05:36;16.80;99.90
12841;DHT22;6487;48.626;12.486;2023-05-10T11:08:18;16.80;99.90
12841;DHT22;6487;48.626;12.486;2023-05-10T11:10:53;16.80;99.90
12841;DHT22;6487;48.626;12.486;2023-05-10T11:13:33;16.70;99.90
12841;DHT22;6487;48.626;12.486;2023-05-10T11:16:12;16.70;99.90
12841;DHT22;6487;48.626;12.486;2023-05-10T11:18:41;16.70;99.90
12841;DHT22;6487;48.626;12.486;2023-05-10T11:21:21;16.30;99.90
12841;DHT22;6487;48.626;12.486;2023-05-10T11:23:51;16.40;99.90
12841;DHT22;6487;48.626;12.486;2023-05-10T11:26:30;16.30;99.90
12841;DHT22;6487;48.626;12.486;2023-05-10T11:29:03;16.40;99.90
12841;DHT22;6487;48.626;12.486;2023-05-10T11:31:32;16.50;99.90
12841;DHT22;6487;48.626;12.486;2023-05-10T11:34:01;16.60;99.90
12841;DHT22;6487;48.626;12.486;2023-05-10T11:36:33;16.70;99.90
12841;DHT22;6487;48.626;12.486;2023-05-10T11:39:03;16.70;99.90
12841;DHT22;6487;48.626;12.486;2023-05-10T11:41:32;16.70;99.90
12841;DHT22;6487;48.626;12.486;2023-05-10T11:44:03;16.70;99.90
12841;DHT22;6487;48.626;12.486;2023-05-10T11:46:31;16.70;99.90
12841;DHT22;6487;48.626;12.486;2023-05-10T11:49:02;16.70;99.90
12841;DHT22;6487;48.626;12.486;2023-05-10T11:51:34;16.70;99.90
12841;DHT22;6487;48.626;12.486;2023-05-10T11:54:06;16.70;99.90
12841;DHT22;6487;48.626;12.486;2023-05-10T11:56:36;16.60;99.90
12841;DHT22;6487;48.626;12.486;2023-05-10T11:59:06;16.70;99.90
12841;DHT22;6487;48.626;12.486;2023-05-10T12:01:36;16.70;99.90
12841;DHT22;6487;48.626;12.486;2023-05-10T12:04:32;16.60;99.90
12841;DHT22;6487;48.626;12.486;2023-05-10T12:07:00;16.70;99.90
12841;DHT22;6487;48.626;12.486;2023-05-10T12:09:29;16.70;99.90
12841;DHT22;6487;48.626;12.486;2023-05-10T12:12:09;16.70;99.90
12841;DHT22;6487;48.626;12.486;2023-05-10T12:14:39;16.80;99.90
12841;DHT22;6487;48.626;12.486;2023-05-10T12:17:11;16.90;99.90
12841;DHT22;6487;48.626;12.486;2023-05-10T12:19:40;16.90;99.90
12841;DHT22;6487;48.626;12.486;2023-05-10T12:22:10;17.00;99.90
12841;DHT22;6487;48.626;12.486;2023-05-10T12:24:38;17.00;99.90
12841;DHT22;6487;48.626;12.486;2023-05-10T12:27:08;16.90;99.90
12841;DHT22;6487;48.626;12.486;2023-05-10T12:29:36;16.90;99.90
12841;DHT22;6487;48.626;12.486;2023-05-10T12:32:11;16.90;99.90
12841;DHT22;6487;48.626;12.486;2023-05-10T12:34:43;16.90;99.90
12841;DHT22;6487;48.626;12.486;2023-05-10T12:37:14;17.00;99.90
12841;DHT22;6487;48.626;12.486;2023-05-10T12:39:44;17.10;99.90
12841;DHT22;6487;48.626;12.486;2023-05-10T12:42:12;17.20;99.90
12841;DHT22;6487;48.626;12.486;2023-05-10T12:44:42;17.20;99.90
12841;DHT22;6487;48.626;12.486;2023-05-10T12:47:11;17.30;99.90
12841;DHT22;6487;48.626;12.486;2023-05-10T12:49:39;17.40;99.90
12841;DHT22;6487;48.626;12.486;2023-05-10T12:52:08;17.40;99.90
12841;DHT22;6487;48.626;12.486;2023-05-10T12:54:36;17.40;99.90
12841;DHT22;6487;48.626;12.486;2023-05-10T12:57:04;17.40;99.90
12841;DHT22;6487;48.626;12.486;2023-05-10T12:59:33;17.50;99.90
12841;DHT22;6487;48.626;12.486;2023-05-10T13:02:06;17.40;99.90
12841;DHT22;6487;48.626;12.486;2023-05-10T13:04:34;17.30;99.90
12841;DHT22;6487;48.626;12.486;2023-05-10T13:07:04;17.40;99.90
12841;DHT22;6487;48.626;12.486;2023-05-10T13:09:32;17.50;99.90
12841;DHT22;6487;48.626;12.486;2023-05-10T13:12:01;17.50;99.90
12841;DHT22;6487;48.626;12.486;2023-05-10T13:14:31;17.60;99.90
12841;DHT22;6487;48.626;12.486;2023-05-10T13:17:02;17.70;99.90
12841;DHT22;6487;48.626;12.486;2023-05-10T13:19:32;17.70;99.90
12841;DHT22;6487;48.626;12.486;2023-05-10T13:22:01;17.70;99.90
12841;DHT22;6487;48.626;12.486;2023-05-10T13:24:29;17.80;99.90
12841;DHT22;6487;48.626;12.486;2023-05-10T13:26:58;17.80;99.90
12841;DHT22;6487;48.626;12.486;2023-05-10T13:29:26;17.70;99.90
12841;DHT22;6487;48.626;12.486;2023-05-10T13:31:55;17.80;99.90
12841;DHT22;6487;48.626;12.486;2023-05-10T13:34:23;17.90;99.90
12841;DHT22;6487;48.626;12.486;2023-05-10T13:36:53;18.10;99.90
12841;DHT22;6487;48.626;12.486;2023-05-10T13:39:29;18.10;99.90
12841;DHT22;6487;48.626;12.486;2023-05-10T13:42:01;18.20;99.90
12841;DHT22;6487;48.626;12.486;2023-05-10T13:44:29;18.20;99.90
12841;DHT22;6487;48.626;12.486;2023-05-10T13:47:00;18.20;99.90
12841;DHT22;6487;48.626;12.486;2023-05-10T13:49:28;18.20;99.90
12841;DHT22;6487;48.626;12.486;2023-05-10T13:51:58;18.10;99.90
12841;DHT22;6487;48.626;12.486;2023-05-10T13:54:30;17.90;99.90
12841;DHT22;6487;48.626;12.486;2023-05-10T13:56:58;18.10;99.90
12841;DHT22;6487;48.626;12.486;2023-05-10T13:59:28;18.00;99.90
12841;DHT22;6487;48.626;12.486;2023-05-10T14:01:58;18.00;99.90
12841;DHT22;6487;48.626;12.486;2023-05-10T14:04:27;18.10;99.90
12841;DHT22;6487;48.626;12.486;2023-05-10T14:06:55;18.10;99.90
12841;DHT22;6487;48.626;12.486;2023-05-10T14:09:25;18.10;99.90
12841;DHT22;6487;48.626;12.486;2023-05-10T14:11:53;18.10;99.90
12841;DHT22;6487;48.626;12.486;2023-05-10T14:14:22;18.00;99.90
12841;DHT22;6487;48.626;12.486;2023-05-10T14:16:50;17.90;99.90
12841;DHT22;6487;48.626;12.486;2023-05-10T14:19:19;17.90;99.90
12841;DHT22;6487;48.626;12.486;2023-05-10T14:21:50;17.90;99.90
12841;DHT22;6487;48.626;12.486;2023-05-10T14:24:19;17.90;99.90
12841;DHT22;6487;48.626;12.486;2023-05-10T14:26:48;18.00;99.90
12841;DHT22;6487;48.626;12.486;2023-05-10T14:29:20;17.90;99.90
12841;DHT22;6487;48.626;12.486;2023-05-10T14:31:49;18.00;99.90
12841;DHT22;6487;48.626;12.486;2023-05-10T14:34:17;17.90;99.90
12841;DHT22;6487;48.626;12.486;2023-05-10T14:36:46;17.80;99.90
12841;DHT22;6487;48.626;12.486;2023-05-10T14:39:15;17.70;99.90
12841;DHT22;6487;48.626;12.486;2023-05-10T14:41:43;17.80;99.90
12841;DHT22;6487;48.626;12.486;2023-05-10T14:44:13;17.70;99.90
12841;DHT22;6487;48.626;12.486;2023-05-10T14:46:42;17.60;99.90
12841;DHT22;6487;48.626;12.486;2023-05-10T14:49:11;17.50;99.90
12841;DHT22;6487;48.626;12.486;2023-05-10T14:51:39;17.00;99.90
12841;DHT22;6487;48.626;12.486;2023-05-10T14:54:08;16.80;99.90
12841;DHT22;6487;48.626;12.486;2023-05-10T14:56:36;16.70;99.90
12841;DHT22;6487;48.626;12.486;2023-05-10T14:59:05;16.50;99.90
12841;DHT22;6487;48.626;12.486;2023-05-10T15:01:35;16.40;99.90
12841;DHT22;6487;48.626;12.486;2023-05-10T15:04:04;16.40;99.90
12841;DHT22;6487;48.626;12.486;2023-05-10T15:06:34;16.50;99.90
12841;DHT22;6487;48.626;12.486;2023-05-10T15:09:03;16.50;99.90
12841;DHT22;6487;48.626;12.486;2023-05-10T15:11:32;16.50;99.90
12841;DHT22;6487;48.626;12.486;2023-05-10T15:14:01;16.30;99.90
12841;DHT22;6487;48.626;12.486;2023-05-10T15:16:29;16.30;99.90
12841;DHT22;6487;48.626;12.486;2023-05-10T15:19:03;16.20;99.90
12841;DHT22;6487;48.626;12.486;2023-05-10T15:21:31;16.20;99.90
12841;DHT22;6487;48.626;12.486;2023-05-10T15:24:05;16.10;99.90
12841;DHT22;6487;48.626;12.486;2023-05-10T15:26:34;16.20;99.90
12841;DHT22;6487;48.626;12.486;2023-05-10T15:29:02;16.00;99.90
12841;DHT22;6487;48.626;12.486;2023-05-10T15:31:31;16.00;99.90
12841;DHT22;6487;48.626;12.486;2023-05-10T15:34:03;15.80;99.90
12841;DHT22;6487;48.626;12.486;2023-05-10T15:36:32;15.70;99.90
12841;DHT22;6487;48.626;12.486;2023-05-10T15:39:00;15.70;99.90
12841;DHT22;6487;48.626;12.486;2023-05-10T15:41:29;15.60;99.90
12841;DHT22;6487;48.626;12.486;2023-05-10T15:43:57;15.60;99.90
12841;DHT22;6487;48.626;12.486;2023-05-10T15:46:27;15.50;99.90
12841;DHT22;6487;48.626;12.486;2023-05-10T15:48:56;15.50;99.90
12841;DHT22;6487;48.626;12.486;2023-05-10T15:51:26;15.30;99.90
12841;DHT22;6487;48.626;12.486;2023-05-10T15:53:54;15.30;99.90
12841;DHT22;6487;48.626;12.486;2023-05-10T15:56:33;15.40;99.90
12841;DHT22;6487;48.626;12.486;2023-05-10T15:59:02;15.40;99.90